• Join FlightAware (Why Join?)
  • Login
  • US Flag 
06:14PM EDT


 

Airport Tracker/Info


-or-


 

Live Flight TrackerFlight Track Log ✈ AAY894 ✈ 15-Dec-2013 ✈ KPIE - KIAG

Flight Track Log - Related Links

Times and Time Zones

All times are in EST time to prevent confusion due to time zone crossing. See the AAY894 flight status page for this flight to view local times or setup timezone preferences in your user account.

Time Position Orientation Groundspeed Altitude Reporting Facility
EST Latitude Longitude Course Direction KTS MPH feet Rate Location/Type
08:38AM 27.9333 -82.7000 41° Northeast 144 166 900  Level Tampa TRACON
08:38AM 27.9500 -82.6833 41° Northeast 199 229 1,700 780 Climbing Tampa TRACON
08:39AM 28.0167 -82.6667 12° North 243 280 2,200 1,380 Climbing Tampa TRACON
08:40AM 28.0833 -82.6500 12° North 286 329 4,500 2,400 Climbing Tampa TRACON
08:43AM 28.2708 -82.6381 North 300 345 10,200 2,160 Climbing Jacksonville Center
08:44AM 28.3689 -82.6447 357° North 320 368 11,700 1,920 Climbing Jacksonville Center
08:45AM 28.4731 -82.6517 357° North 354 407 14,100 2,400 Climbing Jacksonville Center
08:46AM 28.5817 -82.6514 360° North 377 434 16,500 2,040 Climbing Jacksonville Center
08:47AM 28.7006 -82.6511 360° North 387 445 18,200 1,620 Climbing Jacksonville Center
08:48AM 28.8050 -82.6367 North 393 452 19,800 1,620 Climbing Jacksonville Center
08:49AM 28.9239 -82.6317 North 409 471 21,500 1,560 Climbing Jacksonville Center
08:50AM 29.0492 -82.6242 North 428 493 23,000 1,500 Climbing Jacksonville Center
08:51AM 29.1722 -82.6192 North 438 504 24,500 1,200 Climbing Jacksonville Center
08:52AM 29.3039 -82.6117 North 450 518 25,500 1,020 Climbing Jacksonville Center
08:53AM 29.4353 -82.6042 North 460 529 26,600 1,140 Climbing Jacksonville Center
08:54AM 29.5731 -82.5989 North 473 544 27,800 1,320 Climbing Jacksonville Center
08:55AM 29.7086 -82.5889 North 479 551 29,300 1,500 Climbing Jacksonville Center
08:56AM 29.8569 -82.5836 North 488 562 30,900 840 Climbing Jacksonville Center
08:57AM 29.9906 -82.5736 North 477 549 31,000  Climbing Jacksonville Center
08:58AM 30.1242 -82.5731 360° North 477 549 30,900  Descending Jacksonville Center
08:59AM 30.2556 -82.5681 North 477 549 31,000  Climbing Jacksonville Center
09:00AM 30.3872 -82.5603 North 477 549 30,900  Descending Jacksonville Center
09:01AM 30.5228 -82.5550 North 477 549 31,000  Climbing Jacksonville Center
09:02AM 30.6544 -82.5447 North 477 549 30,900 -60 Descending Jacksonville Center
09:03AM 30.7900 -82.5419 North 477 549 30,900  Level Jacksonville Center
09:04AM 30.9236 -82.5367 North 477 549 31,000  Climbing Jacksonville Center
09:05AM 31.0572 -82.5336 North 477 549 30,900  Descending Jacksonville Center
09:06AM 31.1908 -82.5258 North 477 549 31,000  Climbing Jacksonville Center
09:07AM 31.3267 -82.5228 North 477 549 30,900  Descending Jacksonville Center
09:08AM 31.5700 -82.5058 North 477 549 31,000  Climbing Atlanta Center
09:09AM 31.7097 -82.4814 North 483 556 31,000  Level Atlanta Center
09:10AM 31.8472 -82.4594 North 493 567 31,000  Level Atlanta Center
09:11AM 31.9825 -82.4375 North 493 567 31,000  Level Atlanta Center
09:12AM 32.1200 -82.4178 North 493 567 31,000  Level Atlanta Center
09:13AM 32.2303 -82.4011 North 493 567 31,000  Level Atlanta Center
09:14AM 32.3803 -82.3761 North 493 567 31,000  Level Atlanta Center
09:15AM 32.5178 -82.3564 North 498 573 31,000  Level Atlanta Center
09:16AM 32.6572 -82.3292 North 503 579 31,000 240 Level Atlanta Center
09:17AM 32.7969 -82.3067 North 503 579 31,500 720 Climbing Atlanta Center
09:18AM 32.9322 -82.2867 North 498 573 32,500 720 Climbing Atlanta Center
09:19AM 33.0675 -82.2639 North 498 573 33,000 240 Climbing Atlanta Center
09:20AM 33.2050 -82.2439 North 498 573 33,000  Level Atlanta Center
09:21AM 33.3403 -82.2211 North 498 573 33,000  Level Atlanta Center
09:22AM 33.4800 -82.1983 North 498 573 33,000  Level Atlanta Center
09:23AM 33.6194 -82.1753 North 498 573 33,000  Level Atlanta Center
09:24AM 33.7733 -82.1494 North 503 579 33,000  Level Atlanta Center
09:25AM 33.9131 -82.1264 North 503 579 33,000  Level Atlanta Center
09:26AM 34.0544 -82.1031 North 503 579 33,000  Level Atlanta Center
09:27AM 34.1961 -82.0772 North 503 579 33,000  Level Atlanta Center
09:28AM 34.3333 -82.0514 North 503 579 33,000  Level Atlanta Center
09:29AM 34.4750 -82.0281 North 503 579 33,000  Level Atlanta Center
09:30AM 34.6122 -82.0019 North 503 579 33,000  Level Atlanta Center
09:31AM 34.7517 -81.9783 North 503 579 33,000  Level Atlanta Center
09:32AM 34.8931 -81.9547 North 503 579 33,000  Level Atlanta Center
09:33AM 35.0283 -81.9336 North 503 579 33,000  Level Atlanta Center
09:34AM 35.1717 -81.8917 13° North 503 579 33,000  Level Atlanta Center
09:35AM 35.3108 -81.8550 12° North 509 586 33,000  Level Atlanta Center
09:36AM 35.4497 -81.8131 14° North 509 586 33,000  Level Atlanta Center
09:37AM 35.5722 -81.7767 14° North 504 580 33,000  Level Atlanta Center
09:38AM 35.7114 -81.7394 12° North 510 587 33,000  Level Atlanta Center
09:39AM 35.8503 -81.6997 13° North 510 587 33,000  Level Atlanta Center
09:40AM 35.9850 -81.6547 15° North 505 581 33,000  Level Atlanta Center
09:41AM 36.1181 -81.6225 11° North 505 581 33,000  Level Atlanta Center
09:42AM 36.2506 -81.5775 15° North 495 570 33,000  Level Atlanta Center
09:43AM 36.3833 -81.5397 13° North 488 562 33,000  Level Atlanta Center
09:46AM 36.6683 -81.4561 13° North 487 560 33,000  Level Indianapolis Center
09:47AM 36.8272 -81.4106 13° North 494 568 33,000  Level Indianapolis Center
09:48AM 36.9583 -81.3731 13° North 495 570 33,000  Level Indianapolis Center
09:49AM 37.0919 -81.3314 14° North 484 557 33,000  Level Indianapolis Center
09:50AM 37.2231 -81.2933 13° North 482 555 33,000  Level Indianapolis Center
09:51AM 37.3692 -81.2494 13° North 487 560 33,000  Level Indianapolis Center
09:52AM 37.4961 -81.2114 13° North 480 552 33,000  Level Indianapolis Center
09:53AM 37.6242 -81.1703 14° North 482 555 33,000  Level Indianapolis Center
09:54AM 37.7544 -81.1328 13° North 486 559 33,000  Level Indianapolis Center
09:55AM 37.8908 -81.0931 13° North 489 563 33,000  Level Indianapolis Center
09:56AM 38.0225 -81.0544 13° North 487 560 33,000  Level Indianapolis Center
09:57AM 38.1528 -81.0161 13° North 483 556 33,000  Level Indianapolis Center
09:58AM 38.3111 -80.9708 13° North 487 560 33,000  Level Indianapolis Center
09:59AM 38.4428 -80.9331 13° North 488 562 33,000  Level Indianapolis Center
10:00AM 38.5714 -80.8942 13° North 480 552 33,000  Level Indianapolis Center
10:01AM 38.7025 -80.8553 13° North 484 557 33,000  Level Indianapolis Center
10:02AM 38.8314 -80.8167 13° North 481 554 33,000  Level Indianapolis Center
10:03AM 38.9608 -80.7783 13° North 479 551 33,000  Level Indianapolis Center
10:04AM 39.0872 -80.7397 13° North 469 540 33,000  Level Indianapolis Center
10:05AM 39.2111 -80.6889 18° North 471 542 33,000  Level Indianapolis Center
10:06AM 39.3594 -80.6261 18° North 469 540 33,000  Level Indianapolis Center
10:07AM 39.4836 -80.5731 18° North 469 540 33,000  Level Indianapolis Center
10:08AM 39.6078 -80.5206 18° North 469 540 33,000  Level Indianapolis Center
10:09AM 39.7408 -80.4681 17° North 472 543 33,000  Level Cleveland Center
10:10AM 39.8656 -80.4117 19° North 475 547 33,000  Level Cleveland Center
10:11AM 39.9892 -80.3583 18° North 471 542 33,000  Level Cleveland Center
10:12AM 40.1125 -80.3067 18° North 467 537 33,000  Level Cleveland Center
10:13AM 40.2392 -80.2514 18° North 476 548 33,000 -180 Level Cleveland Center
10:14AM 40.3656 -80.1961 18° North 474 545 32,700 -660 Descending Cleveland Center
10:15AM 40.4911 -80.1419 18° North 475 547 31,700 -840 Descending Cleveland Center
10:16AM 40.6203 -80.0850 18° North 486 559 31,000 -360 Descending Cleveland Center
10:17AM 40.7747 -80.0172 18° North 490 564 31,000 -240 Level Cleveland Center
10:18AM 40.8858 -79.9678 19° North 483 556 30,600 -780 Descending Cleveland Center
10:19AM 41.0125 -79.9111 19° North 482 555 29,500 -1,080 Descending Cleveland Center
10:20AM 41.1442 -79.8517 19° North 453 521 28,500 -780 Descending Cleveland Center
10:21AM 41.2544 -79.8033 18° North 425 489 28,000 -300 Descending Cleveland Center
10:23AM 41.3633 -79.7533 19° North 418 481 28,000  Level Cleveland Center
10:24AM 41.4756 -79.7044 18° North 423 487 28,000  Level Cleveland Center
10:25AM 41.5844 -79.6531 19° North 419 482 28,000 -840 Level Cleveland Center
10:26AM 41.7158 -79.5933 19° North 415 478 26,400 -1,620 Descending Cleveland Center
10:27AM 41.8225 -79.5442 19° North 406 467 24,700 -1,680 Descending Cleveland Center
10:28AM 41.9250 -79.4981 19° North 392 451 23,000 -1,620 Descending Cleveland Center
10:29AM 42.0256 -79.4514 19° North 381 438 21,500 -1,500 Descending Cleveland Center
10:30AM 42.1211 -79.4072 19° North 367 422 20,000 -1,560 Descending Cleveland Center
10:31AM 42.2117 -79.3672 18° North 348 400 18,400 -1,620 Descending Cleveland Center
10:32AM 42.3008 -79.3247 19° North 341 392 16,700 -1,800 Descending Cleveland Center
10:33AM 42.3875 -79.2844 19° North 332 382 14,800 -1,860 Descending Cleveland Center
10:34AM 42.4767 -79.2458 18° North 327 376 12,900 -1,740 Descending Cleveland Center
10:35AM 42.5775 -79.1981 19° North 317 365 11,300 -1,620 Descending Cleveland Center
10:36AM 42.6583 -79.1622 18° North 301 346 9,700 -1,620 Descending Cleveland Center
10:37AM 42.7386 -79.1278 17° North 290 334 8,100 -840 Descending Cleveland Center
10:38AM 42.7981 -79.0547 42° Northeast 302 348 8,000 -300 Descending Cleveland Center
10:39AM 42.8617 -78.9708 44° Northeast 305 351 7,500 -660 Descending Cleveland Center
10:40AM 42.9233 -78.8919 43° Northeast 295 339 6,700 -900 Descending Cleveland Center
10:41AM 42.9833 -78.8167 43° Northeast 258 297 5,700 -720 Descending Buffalo TRACON
10:42AM 43.0167 -78.7667 48° Northeast 252 290 5,400 -480 Descending Buffalo TRACON
10:43AM 43.0667 -78.7167 36° Northeast 202 232 4,800 -1,200 Descending Buffalo TRACON
10:44AM 43.1167 -78.7667 324° Northwest 184 212 3,000 -1,500 Descending Buffalo TRACON
10:45AM 43.1167 -78.8333 270° West 181 208 1,900 -900 Descending Buffalo TRACON
10:46AM 43.1167 -78.8833 270° West 118 136 1,300 -600 Descending Buffalo TRACON